createdAt,value
2022-08-17T00:00:52.478Z,20.41
2022-08-17T00:03:34.307Z,20.40
2022-08-17T00:06:16.961Z,20.36
2022-08-17T00:09:01.695Z,20.34
2022-08-17T00:11:44.659Z,20.33
2022-08-17T00:14:41.277Z,20.27
2022-08-17T00:17:21.108Z,20.17
2022-08-17T00:20:03.775Z,20.09
2022-08-17T00:22:43.522Z,20.02
2022-08-17T00:25:22.238Z,19.92
2022-08-17T00:28:03.090Z,19.82
2022-08-17T00:30:52.905Z,19.76
2022-08-17T00:33:35.629Z,19.68
2022-08-17T00:36:10.387Z,19.61
2022-08-17T00:38:47.998Z,19.52
2022-08-17T00:41:29.759Z,19.47
2022-08-17T00:44:13.732Z,19.38
2022-08-17T00:46:51.228Z,19.33
2022-08-17T00:49:29.976Z,19.30
2022-08-17T00:52:12.771Z,19.30
2022-08-17T00:54:50.729Z,19.30
2022-08-17T00:57:31.368Z,19.28
2022-08-17T01:00:15.073Z,19.24
2022-08-17T01:02:52.977Z,19.21
2022-08-17T01:05:34.644Z,19.21
2022-08-17T01:08:16.252Z,19.21
2022-08-17T01:11:01.770Z,19.23
2022-08-17T01:13:42.814Z,19.21
2022-08-17T01:16:28.797Z,19.16
2022-08-17T01:19:12.630Z,19.15
2022-08-17T01:21:59.185Z,19.17
2022-08-17T01:24:36.895Z,19.16
2022-08-17T01:27:18.514Z,19.16
2022-08-17T01:30:02.553Z,19.17
2022-08-17T01:32:44.323Z,19.15
2022-08-17T01:35:23.966Z,19.14
2022-08-17T01:38:07.933Z,19.15
2022-08-17T01:40:57.751Z,19.17
2022-08-17T01:43:39.575Z,19.17
2022-08-17T01:46:24.295Z,19.14
2022-08-17T01:49:03.943Z,19.12
2022-08-17T01:51:40.841Z,19.12
2022-08-17T01:54:20.437Z,19.14
2022-08-17T01:56:58.046Z,19.14
2022-08-17T01:59:42.314Z,19.15
2022-08-17T02:02:31.204Z,19.17
2022-08-17T02:05:10.368Z,19.19
2022-08-17T02:08:00.438Z,19.21
2022-08-17T02:10:40.143Z,19.24
2022-08-17T02:13:23.774Z,19.27
2022-08-17T02:16:06.640Z,19.31
2022-08-17T02:18:44.319Z,19.33
2022-08-17T02:21:27.070Z,19.34
2022-08-17T02:24:09.823Z,19.34
2022-08-17T02:26:51.806Z,19.34
2022-08-17T02:29:29.277Z,19.31
2022-08-17T02:32:12.126Z,19.27
2022-08-17T02:35:02.913Z,19.22
2022-08-17T02:37:45.786Z,19.20
2022-08-17T02:40:36.397Z,19.20
2022-08-17T02:43:16.365Z,19.18
2022-08-17T02:45:56.293Z,19.17
2022-08-17T02:48:43.039Z,19.17
2022-08-17T02:51:20.545Z,19.18
2022-08-17T02:54:39.291Z,19.18
2022-08-17T02:56:57.030Z,19.21
2022-08-17T02:59:37.159Z,19.25
2022-08-17T03:02:15.718Z,19.28
2022-08-17T03:04:59.954Z,19.31
2022-08-17T03:07:36.515Z,19.31
2022-08-17T03:10:18.236Z,19.31
2022-08-17T03:12:57.820Z,19.31
2022-08-17T03:15:40.632Z,19.31
2022-08-17T03:18:25.683Z,19.30
2022-08-17T03:21:07.199Z,19.30
2022-08-17T03:23:44.958Z,19.28
2022-08-17T03:26:29.635Z,19.10
2022-08-17T03:29:06.626Z,18.95
2022-08-17T03:31:49.627Z,18.83
2022-08-17T03:34:26.079Z,18.72
2022-08-17T03:37:04.896Z,18.66
2022-08-17T03:39:43.660Z,18.64
2022-08-17T03:42:32.597Z,18.64
2022-08-17T03:45:15.632Z,18.64
2022-08-17T03:48:12.249Z,18.68
2022-08-17T03:51:10.339Z,18.74
2022-08-17T03:54:21.055Z,18.80
2022-08-17T03:57:16.326Z,18.84
2022-08-17T03:59:56.720Z,18.84
2022-08-17T04:02:36.226Z,18.84
2022-08-17T04:05:15.005Z,18.82
2022-08-17T04:07:53.758Z,18.82
2022-08-17T04:10:31.529Z,18.83
2022-08-17T04:13:13.310Z,18.83
2022-08-17T04:15:54.172Z,18.87
2022-08-17T04:18:32.831Z,18.94
2022-08-17T04:21:17.687Z,19.03
2022-08-17T04:23:59.554Z,19.11
2022-08-17T04:26:53.947Z,19.20
2022-08-17T04:29:54.113Z,19.33
2022-08-17T04:33:10.824Z,19.50
2022-08-17T04:35:37.634Z,19.67
2022-08-17T04:38:21.499Z,19.83
2022-08-17T04:41:18.375Z,20.00
2022-08-17T04:44:01.194Z,20.18
2022-08-17T04:46:37.694Z,20.34
2022-08-17T04:49:15.361Z,20.50
2022-08-17T04:51:56.329Z,20.68
2022-08-17T04:54:37.957Z,20.85
2022-08-17T04:57:14.556Z,21.04
2022-08-17T04:59:55.461Z,21.21
2022-08-17T05:02:31.870Z,21.37
2022-08-17T05:05:14.945Z,21.53
2022-08-17T05:07:52.566Z,21.71
2022-08-17T05:10:33.086Z,21.89
2022-08-17T05:13:14.655Z,22.06
2022-08-17T05:15:52.320Z,22.25
2022-08-17T05:18:30.975Z,22.42
2022-08-17T05:21:10.713Z,22.61
2022-08-17T05:23:54.972Z,22.85
2022-08-17T05:26:42.129Z,23.11
2022-08-17T05:29:22.557Z,23.36
2022-08-17T05:32:37.331Z,23.61
2022-08-17T05:35:15.063Z,23.84
2022-08-17T05:37:54.530Z,24.00
2022-08-17T05:40:33.371Z,24.15
2022-08-17T05:43:19.651Z,24.30
2022-08-17T05:46:16.402Z,24.45
2022-08-17T05:48:56.026Z,24.64
2022-08-17T05:51:37.505Z,24.82
2022-08-17T05:54:31.575Z,25.06
2022-08-17T05:57:27.746Z,25.26
2022-08-17T06:00:18.370Z,25.45
2022-08-17T06:03:08.128Z,25.65
2022-08-17T06:06:32.004Z,25.78
2022-08-17T06:09:10.442Z,25.86
2022-08-17T06:12:06.134Z,25.91
2022-08-17T06:15:00.253Z,26.06
2022-08-17T06:17:34.656Z,26.19
2022-08-17T06:20:18.148Z,26.39
2022-08-17T06:22:58.558Z,26.62
2022-08-17T06:25:55.201Z,26.85
2022-08-17T06:28:41.831Z,27.15
2022-08-17T06:31:29.497Z,27.38
2022-08-17T06:34:07.814Z,27.49
2022-08-17T06:36:59.681Z,27.61
2022-08-17T06:40:02.372Z,27.75
2022-08-17T06:42:55.042Z,27.82
2022-08-17T06:45:52.943Z,27.99
2022-08-17T06:49:00.417Z,28.19
2022-08-17T06:51:48.000Z,28.40
2022-08-17T06:54:49.753Z,28.55
2022-08-17T06:57:33.950Z,28.68
2022-08-17T07:00:16.327Z,28.81
2022-08-17T07:03:01.792Z,28.76
2022-08-17T07:05:51.332Z,28.87
2022-08-17T07:08:50.702Z,28.97
2022-08-17T07:12:06.674Z,29.11
2022-08-17T07:14:52.807Z,29.36
2022-08-17T07:17:47.699Z,29.60
2022-08-17T07:20:28.858Z,29.88
2022-08-17T07:23:25.054Z,29.96
2022-08-17T07:26:10.579Z,30.15
2022-08-17T07:28:48.894Z,30.31
2022-08-17T07:31:29.309Z,30.35
2022-08-17T07:34:17.761Z,30.37
2022-08-17T07:37:07.103Z,30.57
2022-08-17T07:40:14.953Z,30.59
2022-08-17T07:42:46.686Z,30.70
2022-08-17T07:45:41.257Z,30.77
2022-08-17T07:48:27.990Z,30.95
2022-08-17T07:51:03.294Z,31.25
2022-08-17T07:53:43.712Z,31.44
2022-08-17T07:56:41.152Z,31.50
2022-08-17T07:59:33.430Z,31.45
2022-08-17T08:02:43.071Z,31.50
2022-08-17T08:05:49.336Z,31.61
2022-08-17T08:08:41.105Z,31.84
2022-08-17T08:11:34.546Z,32.03
2022-08-17T08:14:32.898Z,32.22
2022-08-17T08:17:15.518Z,32.37
2022-08-17T08:19:54.721Z,32.59
2022-08-17T08:22:43.228Z,32.80
2022-08-17T08:25:49.708Z,33.04
2022-08-17T08:28:43.274Z,33.19
2022-08-17T08:31:55.701Z,32.97
2022-08-17T08:34:45.032Z,33.08
2022-08-17T08:37:55.324Z,33.23
2022-08-17T08:40:40.282Z,33.22
2022-08-17T08:43:39.208Z,33.41
2022-08-17T08:46:48.076Z,33.62
2022-08-17T08:50:30.210Z,33.86
2022-08-17T08:53:22.775Z,34.10
2022-08-17T08:56:13.185Z,34.15
2022-08-17T08:59:06.072Z,34.22
2022-08-17T09:01:53.043Z,34.39
2022-08-17T09:05:12.769Z,34.51
2022-08-17T09:08:01.712Z,34.65
2022-08-17T09:10:59.072Z,34.70
2022-08-17T09:13:54.546Z,34.79
2022-08-17T09:16:56.399Z,34.78
2022-08-17T09:19:54.333Z,34.96
2022-08-17T09:22:40.739Z,35.20
2022-08-17T09:25:25.169Z,35.41
2022-08-17T09:28:09.938Z,35.38
2022-08-17T09:30:52.863Z,35.51
2022-08-17T09:33:30.479Z,35.75
2022-08-17T09:36:21.602Z,35.71
2022-08-17T09:39:16.994Z,35.71
2022-08-17T09:42:05.406Z,35.93
2022-08-17T09:44:48.221Z,36.06
2022-08-17T09:47:54.173Z,36.11
2022-08-17T09:51:05.454Z,36.02
2022-08-17T09:53:40.209Z,36.06
2022-08-17T09:56:46.369Z,36.15
2022-08-17T09:59:43.778Z,36.15
2022-08-17T10:02:44.622Z,35.89
2022-08-17T10:05:28.785Z,35.77
2022-08-17T10:08:25.999Z,35.74
2022-08-17T10:11:12.927Z,35.51
2022-08-17T10:13:55.734Z,35.46
2022-08-17T10:16:50.483Z,35.64
2022-08-17T10:19:44.252Z,35.86
2022-08-17T10:22:58.015Z,35.92
2022-08-17T10:25:55.177Z,36.01
2022-08-17T10:28:39.309Z,36.27
2022-08-17T10:31:37.935Z,36.63
2022-08-17T10:34:44.875Z,36.85
2022-08-17T10:37:23.953Z,36.99
2022-08-17T10:40:26.602Z,36.99
2022-08-17T10:43:04.528Z,36.93
2022-08-17T10:45:42.783Z,37.04
2022-08-17T10:48:40.244Z,37.23
2022-08-17T10:51:40.509Z,37.54
2022-08-17T10:54:41.015Z,37.72
2022-08-17T10:57:35.886Z,37.79
2022-08-17T11:00:17.603Z,38.00
2022-08-17T11:03:00.037Z,38.23
2022-08-17T11:05:59.754Z,38.43
2022-08-17T11:09:32.200Z,38.90
2022-08-17T11:12:16.169Z,39.40
2022-08-17T11:15:01.661Z,39.51
2022-08-17T11:17:45.844Z,39.58
2022-08-17T11:20:49.089Z,39.63
2022-08-17T11:24:06.920Z,39.25
2022-08-17T11:26:51.777Z,38.29
2022-08-17T11:29:39.300Z,37.72
2022-08-17T11:32:48.675Z,37.57
2022-08-17T11:35:44.039Z,37.52
2022-08-17T11:38:29.182Z,37.84
2022-08-17T11:41:29.565Z,38.34
2022-08-17T11:44:39.971Z,38.53
2022-08-17T11:48:26.502Z,38.81
2022-08-17T11:51:28.932Z,38.83
2022-08-17T11:57:23.902Z,38.77
2022-08-17T12:00:08.168Z,39.01
2022-08-17T12:02:51.264Z,39.24
2022-08-17T12:05:31.633Z,39.46
2022-08-17T12:08:20.930Z,39.28
2022-08-17T12:11:12.013Z,38.47
2022-08-17T12:13:53.599Z,37.85
2022-08-17T12:16:37.159Z,37.64
2022-08-17T12:19:24.287Z,37.70
2022-08-17T12:22:11.115Z,38.07
2022-08-17T12:24:57.981Z,38.34
2022-08-17T12:27:48.928Z,38.69
2022-08-17T12:30:38.982Z,39.18
2022-08-17T12:33:25.350Z,39.44
2022-08-17T12:36:07.389Z,39.16
2022-08-17T12:38:48.183Z,38.79
2022-08-17T12:41:37.087Z,38.76
2022-08-17T12:44:21.501Z,38.98
2022-08-17T12:47:12.014Z,39.29
2022-08-17T12:49:53.087Z,39.48
2022-08-17T12:52:31.668Z,39.66
2022-08-17T12:55:17.727Z,39.94
2022-08-17T12:57:59.071Z,40.04
2022-08-17T13:00:49.040Z,39.89
2022-08-17T13:03:32.989Z,39.65
2022-08-17T13:06:21.190Z,39.58
2022-08-17T13:09:00.521Z,39.62
2022-08-17T13:11:42.958Z,39.72
2022-08-17T13:14:21.090Z,39.82
2022-08-17T13:17:07.381Z,39.83
2022-08-17T13:19:57.759Z,39.82
2022-08-17T13:22:35.261Z,39.67
2022-08-17T13:25:19.692Z,39.54
2022-08-17T13:27:59.858Z,39.30
2022-08-17T13:30:37.354Z,38.82
2022-08-17T13:33:43.695Z,38.44
2022-08-17T13:36:31.697Z,38.21
2022-08-17T13:39:30.489Z,37.94
2022-08-17T13:42:51.556Z,37.72
2022-08-17T13:45:39.019Z,37.39
2022-08-17T13:48:17.656Z,37.19
2022-08-17T13:50:53.932Z,37.00
2022-08-17T13:53:52.393Z,36.91
2022-08-17T13:56:53.238Z,36.82
2022-08-17T13:59:53.041Z,36.66
2022-08-17T14:02:32.352Z,36.50
2022-08-17T14:05:13.758Z,36.32
2022-08-17T14:07:53.333Z,36.07
2022-08-17T14:10:30.526Z,35.72
2022-08-17T14:13:09.190Z,35.50
2022-08-17T14:15:56.179Z,35.37
2022-08-17T14:18:56.166Z,35.32
2022-08-17T14:21:39.263Z,35.23
2022-08-17T14:24:34.166Z,35.12
2022-08-17T14:27:13.119Z,35.03
2022-08-17T14:29:53.750Z,34.95
2022-08-17T14:32:34.981Z,34.81
2022-08-17T14:35:14.551Z,34.67
2022-08-17T14:37:53.051Z,34.52
2022-08-17T14:40:32.327Z,34.35
2022-08-17T14:43:10.116Z,34.15
2022-08-17T14:45:47.340Z,33.98
2022-08-17T14:48:26.526Z,33.84
2022-08-17T14:51:03.935Z,33.70
2022-08-17T14:53:42.398Z,33.63
2022-08-17T14:56:19.774Z,33.55
2022-08-17T14:59:01.309Z,33.45
2022-08-17T15:01:43.057Z,33.48
2022-08-17T15:04:21.214Z,33.76
2022-08-17T15:06:57.905Z,34.27
2022-08-17T15:09:36.713Z,34.96
2022-08-17T15:12:17.007Z,35.74
2022-08-17T15:14:58.975Z,36.53
2022-08-17T15:17:46.887Z,37.31
2022-08-17T15:20:27.861Z,38.01
2022-08-17T15:23:06.360Z,38.27
2022-08-17T15:25:42.820Z,38.00
2022-08-17T15:28:21.156Z,38.12
2022-08-17T15:30:58.912Z,38.32
2022-08-17T15:33:38.948Z,38.58
2022-08-17T15:36:20.191Z,38.59
2022-08-17T15:39:03.857Z,38.66
2022-08-17T15:41:43.137Z,38.82
2022-08-17T15:44:32.606Z,39.03
2022-08-17T15:47:15.848Z,38.94
2022-08-17T15:50:00.149Z,38.73
2022-08-17T15:52:40.663Z,38.44
2022-08-17T15:55:23.979Z,38.10
2022-08-17T15:58:00.869Z,37.71
2022-08-17T16:00:51.596Z,37.36
2022-08-17T16:04:01.136Z,36.97
2022-08-17T16:06:43.206Z,36.66
2022-08-17T16:09:23.105Z,36.56
2022-08-17T16:12:12.606Z,36.50
2022-08-17T16:14:52.034Z,36.37
2022-08-17T16:17:39.820Z,36.19
2022-08-17T16:20:19.961Z,36.00
2022-08-17T16:23:03.825Z,35.78
2022-08-17T16:25:53.534Z,35.56
2022-08-17T16:28:36.192Z,35.33
2022-08-17T16:31:16.702Z,35.09
2022-08-17T16:34:09.018Z,34.86
2022-08-17T16:36:58.653Z,34.64
2022-08-17T16:39:40.117Z,34.42
2022-08-17T16:42:35.613Z,34.20
2022-08-17T16:45:17.036Z,34.03
2022-08-17T16:47:56.545Z,33.85
2022-08-17T16:50:36.472Z,33.62
2022-08-17T16:53:19.460Z,33.38
2022-08-17T16:55:59.041Z,33.15
2022-08-17T16:58:43.454Z,32.95
2022-08-17T17:01:26.406Z,32.75
2022-08-17T17:04:07.353Z,32.45
2022-08-17T17:07:12.990Z,32.15
2022-08-17T17:09:56.509Z,31.77
2022-08-17T17:13:02.071Z,31.45
2022-08-17T17:15:47.708Z,31.11
2022-08-17T17:18:31.604Z,30.81
2022-08-17T17:21:10.659Z,30.56
2022-08-17T17:24:02.467Z,30.32
2022-08-17T17:26:52.770Z,30.08
2022-08-17T17:30:04.447Z,29.85
2022-08-17T17:32:52.089Z,29.63
2022-08-17T17:35:39.655Z,29.43
2022-08-17T17:38:22.111Z,29.22
2022-08-17T17:41:11.677Z,29.01
2022-08-17T17:43:51.166Z,28.81
2022-08-17T17:46:43.029Z,28.62
2022-08-17T17:49:21.373Z,28.45
2022-08-17T17:52:09.112Z,28.28
2022-08-17T17:55:18.483Z,28.13
2022-08-17T17:58:11.698Z,27.96
2022-08-17T18:01:29.065Z,27.81
2022-08-17T18:04:50.109Z,27.69
2022-08-17T18:08:10.696Z,27.55
2022-08-17T18:11:24.503Z,27.40
2022-08-17T18:14:09.698Z,27.26
2022-08-17T18:16:49.469Z,27.19
2022-08-17T18:19:28.927Z,27.09
2022-08-17T18:22:14.037Z,27.00
2022-08-17T18:24:58.553Z,26.91
2022-08-17T18:27:42.797Z,26.80
2022-08-17T18:30:16.290Z,26.70
2022-08-17T18:32:56.136Z,26.63
2022-08-17T18:35:35.452Z,26.56
2022-08-17T18:38:30.046Z,26.49
2022-08-17T18:41:25.759Z,26.41
2022-08-17T18:44:06.865Z,26.38
2022-08-17T18:46:46.015Z,26.36
2022-08-17T18:49:32.912Z,26.34
2022-08-17T18:52:16.286Z,26.33
2022-08-17T18:55:12.958Z,26.31
2022-08-17T18:57:55.662Z,26.28
2022-08-17T19:00:33.149Z,26.27
2022-08-17T19:03:19.853Z,26.25
2022-08-17T19:06:22.975Z,26.21
2022-08-17T19:09:00.103Z,26.17
2022-08-17T19:11:41.822Z,26.15
2022-08-17T19:14:21.435Z,26.14
2022-08-17T19:17:23.838Z,26.13
2022-08-17T19:20:24.645Z,26.13
2022-08-17T19:23:31.907Z,26.12
2022-08-17T19:26:17.783Z,26.10
2022-08-17T19:29:23.034Z,26.09
2022-08-17T19:32:00.643Z,26.09
2022-08-17T19:34:41.091Z,26.08
2022-08-17T19:37:45.838Z,26.07
2022-08-17T19:41:04.968Z,26.07
2022-08-17T19:43:45.058Z,26.05
2022-08-17T19:47:01.355Z,26.03
2022-08-17T19:49:49.442Z,26.04
2022-08-17T19:53:04.108Z,26.06
2022-08-17T19:56:00.869Z,26.08
2022-08-17T19:58:56.626Z,26.08
2022-08-17T20:01:35.009Z,26.08
2022-08-17T20:04:25.972Z,26.06
2022-08-17T20:07:28.560Z,26.03
2022-08-17T20:10:12.178Z,25.99
2022-08-17T20:12:53.698Z,25.94
2022-08-17T20:15:32.316Z,25.90
2022-08-17T20:18:13.919Z,25.86
2022-08-17T20:21:06.020Z,25.81
2022-08-17T20:24:18.157Z,25.73
2022-08-17T20:27:15.965Z,25.64
2022-08-17T20:30:02.590Z,25.56
2022-08-17T20:32:58.380Z,25.49
2022-08-17T20:35:37.886Z,25.40
2022-08-17T20:38:33.610Z,25.32
2022-08-17T20:41:23.239Z,25.23
2022-08-17T20:44:06.300Z,25.16
2022-08-17T20:47:01.536Z,25.09
2022-08-17T20:49:52.643Z,25.02
2022-08-17T20:52:53.134Z,24.95
2022-08-17T20:55:52.408Z,24.90
2022-08-17T20:58:30.796Z,24.83
2022-08-17T21:01:23.986Z,24.76
2022-08-17T21:04:04.710Z,24.70
2022-08-17T21:07:21.320Z,24.66
2022-08-17T21:10:18.910Z,24.61
2022-08-17T21:12:57.429Z,24.57
2022-08-17T21:15:47.308Z,24.55
2022-08-17T21:18:44.891Z,24.51
2022-08-17T21:21:42.621Z,24.49
2022-08-17T21:24:49.375Z,24.47
2022-08-17T21:28:03.137Z,24.43
2022-08-17T21:30:46.238Z,24.41
2022-08-17T21:33:26.147Z,24.38
2022-08-17T21:36:00.988Z,24.36
2022-08-17T21:38:42.689Z,24.35
2022-08-17T21:41:27.450Z,24.33
2022-08-17T21:44:22.046Z,24.32
2022-08-17T21:46:58.945Z,24.32
2022-08-17T21:49:39.593Z,24.33
2022-08-17T21:52:25.084Z,24.34
2022-08-17T21:55:04.609Z,24.36
2022-08-17T21:58:12.168Z,24.38
2022-08-17T22:00:43.011Z,24.40
2022-08-17T22:03:34.148Z,24.40
2022-08-17T22:06:30.399Z,24.40
2022-08-17T22:09:12.902Z,24.39
2022-08-17T22:11:50.691Z,24.35
2022-08-17T22:14:52.345Z,24.34
2022-08-17T22:17:48.061Z,24.34
2022-08-17T22:20:29.948Z,24.34
2022-08-17T22:23:21.380Z,24.36
2022-08-17T22:26:09.473Z,24.35
2022-08-17T22:28:48.767Z,24.34
2022-08-17T22:31:33.610Z,24.33
2022-08-17T22:34:18.048Z,24.32
2022-08-17T22:37:19.238Z,24.31
2022-08-17T22:40:02.456Z,24.30
2022-08-17T22:42:54.215Z,24.28
2022-08-17T22:45:32.141Z,24.27
2022-08-17T22:48:19.906Z,24.25
2022-08-17T22:51:13.289Z,24.24
2022-08-17T22:54:14.086Z,24.25
2022-08-17T22:57:11.617Z,24.25
2022-08-17T22:59:56.362Z,24.27
2022-08-17T23:02:54.200Z,24.28
2022-08-17T23:05:37.754Z,24.28
2022-08-17T23:08:17.309Z,24.27
2022-08-17T23:10:57.983Z,24.25
2022-08-17T23:13:39.086Z,24.16
2022-08-17T23:16:16.532Z,24.08
2022-08-17T23:18:57.026Z,24.03
2022-08-17T23:21:39.682Z,23.98
2022-08-17T23:24:26.269Z,23.90
2022-08-17T23:27:08.142Z,23.88
2022-08-17T23:29:47.581Z,23.86
2022-08-17T23:32:26.331Z,23.85
2022-08-17T23:35:08.930Z,23.85
2022-08-17T23:37:46.908Z,23.86
2022-08-17T23:40:27.230Z,23.86
2022-08-17T23:43:17.548Z,23.87
2022-08-17T23:46:02.590Z,23.87
2022-08-17T23:48:41.488Z,23.87
2022-08-17T23:51:22.878Z,23.87
2022-08-17T23:54:11.031Z,23.86
2022-08-17T23:56:51.232Z,23.81
2022-08-17T23:59:29.853Z,23.75
